sensor_id;sensor_type;location;lat;lon;timestamp;temperature;humidity
22321;DHT22;11328;53.928;18.522;2023-02-26T00:01:44;1.00;99.90
22321;DHT22;11328;53.928;18.522;2023-02-26T00:04:11;1.00;99.90
22321;DHT22;11328;53.928;18.522;2023-02-26T00:06:40;1.00;99.90
22321;DHT22;11328;53.928;18.522;2023-02-26T00:09:21;1.00;99.90
22321;DHT22;11328;53.928;18.522;2023-02-26T00:11:49;1.00;99.90
22321;DHT22;11328;53.928;18.522;2023-02-26T00:14:17;1.00;99.90
22321;DHT22;11328;53.928;18.522;2023-02-26T00:16:49;0.90;99.90
22321;DHT22;11328;53.928;18.522;2023-02-26T00:19:38;0.90;99.90
22321;DHT22;11328;53.928;18.522;2023-02-26T00:22:05;0.90;99.90
22321;DHT22;11328;53.928;18.522;2023-02-26T00:24:32;0.90;99.90
22321;DHT22;11328;53.928;18.522;2023-02-26T00:26:59;0.90;99.90
22321;DHT22;11328;53.928;18.522;2023-02-26T00:29:27;0.80;99.90
22321;DHT22;11328;53.928;18.522;2023-02-26T00:31:54;0.70;99.90
22321;DHT22;11328;53.928;18.522;2023-02-26T00:34:22;0.80;99.90
22321;DHT22;11328;53.928;18.522;2023-02-26T00:42:47;0.80;99.90
22321;DHT22;11328;53.928;18.522;2023-02-26T00:45:15;0.90;99.90
22321;DHT22;11328;53.928;18.522;2023-02-26T00:51:30;1.10;99.90
22321;DHT22;11328;53.928;18.522;2023-02-26T00:56:42;1.20;99.90
22321;DHT22;11328;53.928;18.522;2023-02-26T00:59:09;1.10;99.90
22321;DHT22;11328;53.928;18.522;2023-02-26T01:01:36;1.00;99.90
22321;DHT22;11328;53.928;18.522;2023-02-26T01:04:04;0.90;99.90
22321;DHT22;11328;53.928;18.522;2023-02-26T01:06:33;1.00;99.90
22321;DHT22;11328;53.928;18.522;2023-02-26T01:11:34;1.00;99.90
22321;DHT22;11328;53.928;18.522;2023-02-26T01:14:03;1.10;99.90
22321;DHT22;11328;53.928;18.522;2023-02-26T01:16:40;1.00;99.90
22321;DHT22;11328;53.928;18.522;2023-02-26T01:19:25;1.00;99.90
22321;DHT22;11328;53.928;18.522;2023-02-26T01:22:27;1.00;99.90
22321;DHT22;11328;53.928;18.522;2023-02-26T01:25:03;0.90;99.90
22321;DHT22;11328;53.928;18.522;2023-02-26T01:27:36;0.90;99.90
22321;DHT22;11328;53.928;18.522;2023-02-26T01:30:05;0.90;99.90
22321;DHT22;11328;53.928;18.522;2023-02-26T01:36:01;0.90;99.90
22321;DHT22;11328;53.928;18.522;2023-02-26T01:41:50;0.90;99.90
22321;DHT22;11328;53.928;18.522;2023-02-26T01:44:59;0.90;99.90
22321;DHT22;11328;53.928;18.522;2023-02-26T01:47:38;0.90;99.90
22321;DHT22;11328;53.928;18.522;2023-02-26T01:50:20;0.90;99.90
22321;DHT22;11328;53.928;18.522;2023-02-26T01:55:42;1.00;99.90
22321;DHT22;11328;53.928;18.522;2023-02-26T01:58:22;1.00;99.90
22321;DHT22;11328;53.928;18.522;2023-02-26T02:00:51;1.00;99.90
22321;DHT22;11328;53.928;18.522;2023-02-26T02:03:20;1.00;99.90
22321;DHT22;11328;53.928;18.522;2023-02-26T02:05:54;1.00;99.90
22321;DHT22;11328;53.928;18.522;2023-02-26T02:08:24;1.10;99.90
22321;DHT22;11328;53.928;18.522;2023-02-26T02:10:53;1.10;99.90
22321;DHT22;11328;53.928;18.522;2023-02-26T02:31:43;0.80;99.90
22321;DHT22;11328;53.928;18.522;2023-02-26T02:37:28;0.80;99.90
22321;DHT22;11328;53.928;18.522;2023-02-26T02:48:09;0.70;99.90
22321;DHT22;11328;53.928;18.522;2023-02-26T02:51:07;0.70;99.90
22321;DHT22;11328;53.928;18.522;2023-02-26T02:54:00;0.80;99.90
22321;DHT22;11328;53.928;18.522;2023-02-26T02:57:01;0.70;99.90
22321;DHT22;11328;53.928;18.522;2023-02-26T02:59:49;0.80;99.90
22321;DHT22;11328;53.928;18.522;2023-02-26T03:02:50;0.80;99.90
22321;DHT22;11328;53.928;18.522;2023-02-26T03:05:26;0.90;99.90
22321;DHT22;11328;53.928;18.522;2023-02-26T03:08:10;0.80;99.90
22321;DHT22;11328;53.928;18.522;2023-02-26T03:10:40;0.80;99.90
22321;DHT22;11328;53.928;18.522;2023-02-26T03:13:20;0.70;99.90
22321;DHT22;11328;53.928;18.522;2023-02-26T03:25:31;0.80;99.90
22321;DHT22;11328;53.928;18.522;2023-02-26T03:30:56;0.90;99.90
22321;DHT22;11328;53.928;18.522;2023-02-26T03:33:37;0.90;99.90
22321;DHT22;11328;53.928;18.522;2023-02-26T03:36:29;1.00;99.90
22321;DHT22;11328;53.928;18.522;2023-02-26T03:39:13;1.00;99.90
22321;DHT22;11328;53.928;18.522;2023-02-26T03:44:38;1.00;99.90
22321;DHT22;11328;53.928;18.522;2023-02-26T03:47:12;1.10;99.90
22321;DHT22;11328;53.928;18.522;2023-02-26T03:49:45;1.10;99.90
22321;DHT22;11328;53.928;18.522;2023-02-26T03:52:16;1.10;99.90
22321;DHT22;11328;53.928;18.522;2023-02-26T03:54:54;1.10;99.90
22321;DHT22;11328;53.928;18.522;2023-02-26T03:57:26;1.20;99.90
22321;DHT22;11328;53.928;18.522;2023-02-26T03:59:53;1.20;99.90
22321;DHT22;11328;53.928;18.522;2023-02-26T04:05:10;1.10;99.90
22321;DHT22;11328;53.928;18.522;2023-02-26T04:07:41;1.10;99.90
22321;DHT22;11328;53.928;18.522;2023-02-26T04:10:14;1.10;99.90
22321;DHT22;11328;53.928;18.522;2023-02-26T04:12:44;1.10;99.90
22321;DHT22;11328;53.928;18.522;2023-02-26T04:15:11;1.10;99.90
22321;DHT22;11328;53.928;18.522;2023-02-26T04:17:38;1.10;99.90
22321;DHT22;11328;53.928;18.522;2023-02-26T04:20:06;1.20;99.90
22321;DHT22;11328;53.928;18.522;2023-02-26T04:22:36;1.20;99.90
22321;DHT22;11328;53.928;18.522;2023-02-26T04:25:04;1.20;99.90
22321;DHT22;11328;53.928;18.522;2023-02-26T04:27:31;1.20;99.90
22321;DHT22;11328;53.928;18.522;2023-02-26T04:29:58;1.20;99.90
22321;DHT22;11328;53.928;18.522;2023-02-26T04:32:26;1.10;99.90
22321;DHT22;11328;53.928;18.522;2023-02-26T04:34:53;1.10;99.90
22321;DHT22;11328;53.928;18.522;2023-02-26T04:37:20;1.20;99.90
22321;DHT22;11328;53.928;18.522;2023-02-26T04:39:47;1.20;99.90
22321;DHT22;11328;53.928;18.522;2023-02-26T04:42:14;1.10;99.90
22321;DHT22;11328;53.928;18.522;2023-02-26T04:44:41;1.10;99.90
22321;DHT22;11328;53.928;18.522;2023-02-26T04:47:08;1.20;99.90
22321;DHT22;11328;53.928;18.522;2023-02-26T04:49:35;1.20;99.90
22321;DHT22;11328;53.928;18.522;2023-02-26T04:52:02;1.20;99.90
22321;DHT22;11328;53.928;18.522;2023-02-26T04:54:29;1.20;99.90
22321;DHT22;11328;53.928;18.522;2023-02-26T04:56:56;1.10;99.90
22321;DHT22;11328;53.928;18.522;2023-02-26T04:59:23;1.20;99.90
22321;DHT22;11328;53.928;18.522;2023-02-26T05:01:50;1.10;99.90
22321;DHT22;11328;53.928;18.522;2023-02-26T05:04:17;1.20;99.90
22321;DHT22;11328;53.928;18.522;2023-02-26T05:06:44;1.20;99.90
22321;DHT22;11328;53.928;18.522;2023-02-26T05:09:11;1.20;99.90
22321;DHT22;11328;53.928;18.522;2023-02-26T05:11:39;1.10;99.90
22321;DHT22;11328;53.928;18.522;2023-02-26T05:14:06;1.10;99.90
22321;DHT22;11328;53.928;18.522;2023-02-26T05:16:33;1.10;99.90
22321;DHT22;11328;53.928;18.522;2023-02-26T05:19:01;1.20;99.90
22321;DHT22;11328;53.928;18.522;2023-02-26T05:21:28;1.30;99.90
22321;DHT22;11328;53.928;18.522;2023-02-26T05:23:55;1.30;99.90
22321;DHT22;11328;53.928;18.522;2023-02-26T05:26:22;1.20;99.90
22321;DHT22;11328;53.928;18.522;2023-02-26T05:28:50;1.20;99.90
22321;DHT22;11328;53.928;18.522;2023-02-26T05:31:18;1.20;99.90
22321;DHT22;11328;53.928;18.522;2023-02-26T05:33:45;1.20;99.90
22321;DHT22;11328;53.928;18.522;2023-02-26T05:36:12;1.10;99.90
22321;DHT22;11328;53.928;18.522;2023-02-26T05:38:39;1.10;99.90
22321;DHT22;11328;53.928;18.522;2023-02-26T05:41:06;1.20;99.90
22321;DHT22;11328;53.928;18.522;2023-02-26T05:43:33;1.30;99.90
22321;DHT22;11328;53.928;18.522;2023-02-26T05:46:01;1.30;99.90
22321;DHT22;11328;53.928;18.522;2023-02-26T05:48:28;1.30;99.90
22321;DHT22;11328;53.928;18.522;2023-02-26T05:50:56;1.30;99.90
22321;DHT22;11328;53.928;18.522;2023-02-26T05:53:23;1.40;99.90
22321;DHT22;11328;53.928;18.522;2023-02-26T05:55:52;1.40;99.90
22321;DHT22;11328;53.928;18.522;2023-02-26T05:58:19;1.50;99.90
22321;DHT22;11328;53.928;18.522;2023-02-26T06:00:48;1.50;99.90
22321;DHT22;11328;53.928;18.522;2023-02-26T06:03:15;1.60;99.90
22321;DHT22;11328;53.928;18.522;2023-02-26T06:05:42;1.60;99.90
22321;DHT22;11328;53.928;18.522;2023-02-26T06:08:10;1.60;99.90
22321;DHT22;11328;53.928;18.522;2023-02-26T06:10:41;1.60;99.90
22321;DHT22;11328;53.928;18.522;2023-02-26T06:13:09;1.70;99.90
22321;DHT22;11328;53.928;18.522;2023-02-26T06:15:36;1.70;99.90
22321;DHT22;11328;53.928;18.522;2023-02-26T06:18:03;1.70;99.90
22321;DHT22;11328;53.928;18.522;2023-02-26T06:20:30;1.70;99.90
22321;DHT22;11328;53.928;18.522;2023-02-26T06:22:57;1.80;99.90
22321;DHT22;11328;53.928;18.522;2023-02-26T06:25:24;1.70;99.90
22321;DHT22;11328;53.928;18.522;2023-02-26T06:27:52;1.60;99.90
22321;DHT22;11328;53.928;18.522;2023-02-26T06:30:19;1.60;99.90
22321;DHT22;11328;53.928;18.522;2023-02-26T06:32:46;1.60;99.90
22321;DHT22;11328;53.928;18.522;2023-02-26T06:35:13;1.50;99.90
22321;DHT22;11328;53.928;18.522;2023-02-26T06:37:40;1.40;99.90
22321;DHT22;11328;53.928;18.522;2023-02-26T06:40:08;1.40;99.90
22321;DHT22;11328;53.928;18.522;2023-02-26T06:42:36;1.40;99.90
22321;DHT22;11328;53.928;18.522;2023-02-26T06:45:04;1.40;99.90
22321;DHT22;11328;53.928;18.522;2023-02-26T06:47:31;1.50;99.90
22321;DHT22;11328;53.928;18.522;2023-02-26T06:49:58;1.50;99.90
22321;DHT22;11328;53.928;18.522;2023-02-26T06:52:25;1.50;99.90
22321;DHT22;11328;53.928;18.522;2023-02-26T06:54:52;1.60;99.90
22321;DHT22;11328;53.928;18.522;2023-02-26T06:57:19;1.60;99.90
22321;DHT22;11328;53.928;18.522;2023-02-26T06:59:46;1.70;99.90
22321;DHT22;11328;53.928;18.522;2023-02-26T07:02:19;1.70;99.90
22321;DHT22;11328;53.928;18.522;2023-02-26T07:04:48;1.70;99.90
22321;DHT22;11328;53.928;18.522;2023-02-26T07:07:15;1.60;99.90
22321;DHT22;11328;53.928;18.522;2023-02-26T07:09:42;1.60;99.90
22321;DHT22;11328;53.928;18.522;2023-02-26T07:12:11;1.70;99.90
22321;DHT22;11328;53.928;18.522;2023-02-26T07:14:39;1.80;99.90
22321;DHT22;11328;53.928;18.522;2023-02-26T07:17:06;1.80;99.90
22321;DHT22;11328;53.928;18.522;2023-02-26T07:19:33;1.80;99.90
22321;DHT22;11328;53.928;18.522;2023-02-26T07:22:00;1.90;99.90
22321;DHT22;11328;53.928;18.522;2023-02-26T07:24:27;1.90;99.90
22321;DHT22;11328;53.928;18.522;2023-02-26T07:26:55;1.90;99.90
22321;DHT22;11328;53.928;18.522;2023-02-26T07:29:22;1.90;99.90
22321;DHT22;11328;53.928;18.522;2023-02-26T07:31:49;1.90;99.90
22321;DHT22;11328;53.928;18.522;2023-02-26T07:34:16;1.80;99.90
22321;DHT22;11328;53.928;18.522;2023-02-26T07:36:44;1.80;99.90
22321;DHT22;11328;53.928;18.522;2023-02-26T07:39:11;1.80;99.90
22321;DHT22;11328;53.928;18.522;2023-02-26T07:41:38;1.80;99.90
22321;DHT22;11328;53.928;18.522;2023-02-26T07:44:05;1.70;99.90
22321;DHT22;11328;53.928;18.522;2023-02-26T07:46:32;1.80;99.90
22321;DHT22;11328;53.928;18.522;2023-02-26T07:48:59;1.80;99.90
22321;DHT22;11328;53.928;18.522;2023-02-26T07:51:26;1.90;99.90
22321;DHT22;11328;53.928;18.522;2023-02-26T07:53:54;2.00;99.90
22321;DHT22;11328;53.928;18.522;2023-02-26T07:56:21;2.00;99.90
22321;DHT22;11328;53.928;18.522;2023-02-26T07:58:48;2.10;99.90
22321;DHT22;11328;53.928;18.522;2023-02-26T08:01:15;2.30;99.90
22321;DHT22;11328;53.928;18.522;2023-02-26T08:03:42;2.40;99.90
22321;DHT22;11328;53.928;18.522;2023-02-26T08:06:09;2.50;99.90
22321;DHT22;11328;53.928;18.522;2023-02-26T08:08:36;2.70;99.90
22321;DHT22;11328;53.928;18.522;2023-02-26T08:11:04;2.70;99.90
22321;DHT22;11328;53.928;18.522;2023-02-26T08:13:32;2.80;99.90
22321;DHT22;11328;53.928;18.522;2023-02-26T08:15:59;2.80;99.90
22321;DHT22;11328;53.928;18.522;2023-02-26T08:18:27;3.00;99.90
22321;DHT22;11328;53.928;18.522;2023-02-26T08:20:54;3.40;99.90
22321;DHT22;11328;53.928;18.522;2023-02-26T08:23:22;3.50;99.90
22321;DHT22;11328;53.928;18.522;2023-02-26T08:25:49;3.40;99.90
22321;DHT22;11328;53.928;18.522;2023-02-26T08:28:24;3.30;99.90
22321;DHT22;11328;53.928;18.522;2023-02-26T08:30:53;3.30;99.90
22321;DHT22;11328;53.928;18.522;2023-02-26T08:33:24;3.40;99.90
22321;DHT22;11328;53.928;18.522;2023-02-26T08:35:52;3.40;99.90
22321;DHT22;11328;53.928;18.522;2023-02-26T08:38:19;3.40;99.90
22321;DHT22;11328;53.928;18.522;2023-02-26T08:40:49;3.60;99.90
22321;DHT22;11328;53.928;18.522;2023-02-26T08:43:21;3.70;99.90
22321;DHT22;11328;53.928;18.522;2023-02-26T08:45:51;3.80;99.90
22321;DHT22;11328;53.928;18.522;2023-02-26T08:48:21;3.80;99.90
22321;DHT22;11328;53.928;18.522;2023-02-26T08:50:49;3.90;99.90
22321;DHT22;11328;53.928;18.522;2023-02-26T08:53:17;4.00;99.90
22321;DHT22;11328;53.928;18.522;2023-02-26T08:55:48;4.20;99.90
22321;DHT22;11328;53.928;18.522;2023-02-26T08:58:16;4.50;99.90
22321;DHT22;11328;53.928;18.522;2023-02-26T09:00:44;4.80;99.90
22321;DHT22;11328;53.928;18.522;2023-02-26T09:03:11;5.10;99.90
22321;DHT22;11328;53.928;18.522;2023-02-26T09:05:39;5.20;99.90
22321;DHT22;11328;53.928;18.522;2023-02-26T09:08:07;4.90;99.90
22321;DHT22;11328;53.928;18.522;2023-02-26T09:10:34;4.80;99.90
22321;DHT22;11328;53.928;18.522;2023-02-26T09:13:01;4.60;99.90
22321;DHT22;11328;53.928;18.522;2023-02-26T09:15:28;4.50;99.90
22321;DHT22;11328;53.928;18.522;2023-02-26T09:17:56;4.40;99.90
22321;DHT22;11328;53.928;18.522;2023-02-26T09:20:23;4.50;99.90
22321;DHT22;11328;53.928;18.522;2023-02-26T09:22:50;4.50;99.90
22321;DHT22;11328;53.928;18.522;2023-02-26T09:25:17;4.40;99.90
22321;DHT22;11328;53.928;18.522;2023-02-26T09:27:47;4.40;99.90
22321;DHT22;11328;53.928;18.522;2023-02-26T09:30:15;4.20;99.90
22321;DHT22;11328;53.928;18.522;2023-02-26T09:32:43;4.10;99.90
22321;DHT22;11328;53.928;18.522;2023-02-26T09:35:10;4.20;99.90
22321;DHT22;11328;53.928;18.522;2023-02-26T09:37:37;4.20;99.90
22321;DHT22;11328;53.928;18.522;2023-02-26T09:40:06;4.20;99.90
22321;DHT22;11328;53.928;18.522;2023-02-26T09:45:37;4.10;99.90
22321;DHT22;11328;53.928;18.522;2023-02-26T09:48:12;4.10;99.90
22321;DHT22;11328;53.928;18.522;2023-02-26T09:50:47;4.20;99.90
22321;DHT22;11328;53.928;18.522;2023-02-26T09:56:22;4.10;99.90
22321;DHT22;11328;53.928;18.522;2023-02-26T09:58:51;4.20;99.90
22321;DHT22;11328;53.928;18.522;2023-02-26T10:01:30;4.30;99.90
22321;DHT22;11328;53.928;18.522;2023-02-26T10:12:39;4.70;99.90
22321;DHT22;11328;53.928;18.522;2023-02-26T10:15:31;4.70;99.90
22321;DHT22;11328;53.928;18.522;2023-02-26T10:18:13;4.70;99.90
22321;DHT22;11328;53.928;18.522;2023-02-26T10:23:41;4.80;99.90
22321;DHT22;11328;53.928;18.522;2023-02-26T10:34:59;4.50;99.90
22321;DHT22;11328;53.928;18.522;2023-02-26T10:37:46;4.40;99.90
22321;DHT22;11328;53.928;18.522;2023-02-26T10:43:26;4.30;99.90
22321;DHT22;11328;53.928;18.522;2023-02-26T10:52:16;4.60;99.90
22321;DHT22;11328;53.928;18.522;2023-02-26T10:57:26;4.50;99.90
22321;DHT22;11328;53.928;18.522;2023-02-26T10:59:59;4.70;99.90
22321;DHT22;11328;53.928;18.522;2023-02-26T11:05:16;4.70;99.90
22321;DHT22;11328;53.928;18.522;2023-02-26T11:07:49;4.70;99.90
22321;DHT22;11328;53.928;18.522;2023-02-26T11:10:23;4.80;99.90
22321;DHT22;11328;53.928;18.522;2023-02-26T11:12:52;4.80;99.90
22321;DHT22;11328;53.928;18.522;2023-02-26T11:15:22;4.80;99.90
22321;DHT22;11328;53.928;18.522;2023-02-26T11:17:56;4.60;99.90
22321;DHT22;11328;53.928;18.522;2023-02-26T11:20:34;4.60;99.90
22321;DHT22;11328;53.928;18.522;2023-02-26T11:23:17;4.50;99.90
22321;DHT22;11328;53.928;18.522;2023-02-26T11:25:57;4.30;99.90
22321;DHT22;11328;53.928;18.522;2023-02-26T11:28:36;4.30;99.90
22321;DHT22;11328;53.928;18.522;2023-02-26T11:31:10;4.40;99.90
22321;DHT22;11328;53.928;18.522;2023-02-26T11:34:02;4.50;99.90
22321;DHT22;11328;53.928;18.522;2023-02-26T11:36:32;4.70;99.90
22321;DHT22;11328;53.928;18.522;2023-02-26T11:39:07;4.60;99.90
22321;DHT22;11328;53.928;18.522;2023-02-26T11:41:44;4.60;99.90
22321;DHT22;11328;53.928;18.522;2023-02-26T11:44:36;4.60;99.90
22321;DHT22;11328;53.928;18.522;2023-02-26T11:47:12;4.70;99.90
22321;DHT22;11328;53.928;18.522;2023-02-26T11:50:12;4.40;99.90
22321;DHT22;11328;53.928;18.522;2023-02-26T11:52:53;4.30;99.90
22321;DHT22;11328;53.928;18.522;2023-02-26T11:55:32;4.10;99.90
22321;DHT22;11328;53.928;18.522;2023-02-26T11:58:19;4.20;99.90
22321;DHT22;11328;53.928;18.522;2023-02-26T12:00:52;4.10;99.90
22321;DHT22;11328;53.928;18.522;2023-02-26T12:03:27;4.00;99.90
22321;DHT22;11328;53.928;18.522;2023-02-26T12:05:58;3.90;99.90
22321;DHT22;11328;53.928;18.522;2023-02-26T12:08:31;3.90;99.90
22321;DHT22;11328;53.928;18.522;2023-02-26T12:14:25;3.80;99.90
22321;DHT22;11328;53.928;18.522;2023-02-26T12:26:01;3.70;99.90
22321;DHT22;11328;53.928;18.522;2023-02-26T12:43:48;3.40;99.90
22321;DHT22;11328;53.928;18.522;2023-02-26T12:54:58;3.60;99.90
22321;DHT22;11328;53.928;18.522;2023-02-26T13:01:07;3.60;99.90
22321;DHT22;11328;53.928;18.522;2023-02-26T13:12:47;3.80;99.90
22321;DHT22;11328;53.928;18.522;2023-02-26T13:18:40;3.60;99.90
22321;DHT22;11328;53.928;18.522;2023-02-26T13:24:06;3.60;99.90
22321;DHT22;11328;53.928;18.522;2023-02-26T13:26:39;3.60;99.90
22321;DHT22;11328;53.928;18.522;2023-02-26T13:29:10;3.60;99.90
22321;DHT22;11328;53.928;18.522;2023-02-26T13:31:51;3.40;99.90
22321;DHT22;11328;53.928;18.522;2023-02-26T13:34:41;3.20;99.90
22321;DHT22;11328;53.928;18.522;2023-02-26T13:37:29;3.20;99.90
22321;DHT22;11328;53.928;18.522;2023-02-26T13:46:05;3.10;99.90
22321;DHT22;11328;53.928;18.522;2023-02-26T13:51:46;3.00;99.90
22321;DHT22;11328;53.928;18.522;2023-02-26T13:57:10;2.90;99.90
22321;DHT22;11328;53.928;18.522;2023-02-26T14:02:55;2.90;99.90
22321;DHT22;11328;53.928;18.522;2023-02-26T14:05:51;2.70;99.90
22321;DHT22;11328;53.928;18.522;2023-02-26T14:08:42;2.60;99.90
22321;DHT22;11328;53.928;18.522;2023-02-26T14:22:36;2.60;99.90
22321;DHT22;11328;53.928;18.522;2023-02-26T14:33:31;2.60;99.90
22321;DHT22;11328;53.928;18.522;2023-02-26T14:36:36;2.60;99.90
22321;DHT22;11328;53.928;18.522;2023-02-26T14:39:30;2.60;99.90
22321;DHT22;11328;53.928;18.522;2023-02-26T14:42:06;2.60;99.90
22321;DHT22;11328;53.928;18.522;2023-02-26T14:45:21;2.60;99.90
22321;DHT22;11328;53.928;18.522;2023-02-26T14:47:58;2.50;99.90
22321;DHT22;11328;53.928;18.522;2023-02-26T14:51:25;2.50;99.90
22321;DHT22;11328;53.928;18.522;2023-02-26T15:02:58;2.40;99.90
22321;DHT22;11328;53.928;18.522;2023-02-26T15:06:02;2.40;99.90
22321;DHT22;11328;53.928;18.522;2023-02-26T15:23:41;2.40;99.90
22321;DHT22;11328;53.928;18.522;2023-02-26T15:26:21;2.40;99.90
22321;DHT22;11328;53.928;18.522;2023-02-26T15:28:52;2.40;99.90
22321;DHT22;11328;53.928;18.522;2023-02-26T15:31:26;2.30;99.90
22321;DHT22;11328;53.928;18.522;2023-02-26T15:33:57;2.30;99.90
22321;DHT22;11328;53.928;18.522;2023-02-26T15:36:28;2.30;99.90
22321;DHT22;11328;53.928;18.522;2023-02-26T15:38:59;2.30;99.90
22321;DHT22;11328;53.928;18.522;2023-02-26T15:41:30;2.30;99.90
22321;DHT22;11328;53.928;18.522;2023-02-26T15:44:05;2.30;99.90
22321;DHT22;11328;53.928;18.522;2023-02-26T15:46:44;2.20;99.90
22321;DHT22;11328;53.928;18.522;2023-02-26T15:51:51;2.20;99.90
22321;DHT22;11328;53.928;18.522;2023-02-26T15:54:21;2.20;99.90
22321;DHT22;11328;53.928;18.522;2023-02-26T15:56:50;2.30;99.90
22321;DHT22;11328;53.928;18.522;2023-02-26T15:59:26;2.20;99.90
22321;DHT22;11328;53.928;18.522;2023-02-26T16:01:56;2.20;99.90
22321;DHT22;11328;53.928;18.522;2023-02-26T16:04:23;2.20;99.90
22321;DHT22;11328;53.928;18.522;2023-02-26T16:06:56;2.20;99.90
22321;DHT22;11328;53.928;18.522;2023-02-26T16:09:29;2.20;99.90
22321;DHT22;11328;53.928;18.522;2023-02-26T16:12:09;2.20;99.90
22321;DHT22;11328;53.928;18.522;2023-02-26T16:14:46;2.20;99.90
22321;DHT22;11328;53.928;18.522;2023-02-26T16:17:30;2.20;99.90
22321;DHT22;11328;53.928;18.522;2023-02-26T16:20:04;2.20;99.90
22321;DHT22;11328;53.928;18.522;2023-02-26T16:22:41;2.10;99.90
22321;DHT22;11328;53.928;18.522;2023-02-26T16:25:29;1.90;99.90
22321;DHT22;11328;53.928;18.522;2023-02-26T16:28:05;1.80;99.90
22321;DHT22;11328;53.928;18.522;2023-02-26T16:30:42;1.80;99.90
22321;DHT22;11328;53.928;18.522;2023-02-26T16:33:15;1.70;99.90
22321;DHT22;11328;53.928;18.522;2023-02-26T16:35:47;1.60;99.90
22321;DHT22;11328;53.928;18.522;2023-02-26T16:38:23;1.70;99.90
22321;DHT22;11328;53.928;18.522;2023-02-26T16:41:01;1.60;99.90
22321;DHT22;11328;53.928;18.522;2023-02-26T16:49:19;1.50;99.90
22321;DHT22;11328;53.928;18.522;2023-02-26T16:51:50;1.40;99.90
22321;DHT22;11328;53.928;18.522;2023-02-26T16:57:01;1.40;99.90
22321;DHT22;11328;53.928;18.522;2023-02-26T16:59:34;1.40;99.90
22321;DHT22;11328;53.928;18.522;2023-02-26T17:02:17;1.30;99.90
22321;DHT22;11328;53.928;18.522;2023-02-26T17:04:53;1.20;99.90
22321;DHT22;11328;53.928;18.522;2023-02-26T17:07:31;1.20;99.90
22321;DHT22;11328;53.928;18.522;2023-02-26T17:10:52;1.20;99.90
22321;DHT22;11328;53.928;18.522;2023-02-26T17:13:19;1.10;99.90
22321;DHT22;11328;53.928;18.522;2023-02-26T17:15:51;1.10;99.90
22321;DHT22;11328;53.928;18.522;2023-02-26T17:18:20;1.10;99.90
22321;DHT22;11328;53.928;18.522;2023-02-26T17:20:47;1.00;99.90
22321;DHT22;11328;53.928;18.522;2023-02-26T17:23:16;1.00;99.90
22321;DHT22;11328;53.928;18.522;2023-02-26T17:25:46;1.00;99.90
22321;DHT22;11328;53.928;18.522;2023-02-26T17:28:30;1.00;99.90
22321;DHT22;11328;53.928;18.522;2023-02-26T17:31:02;1.00;99.90
22321;DHT22;11328;53.928;18.522;2023-02-26T17:33:31;0.90;99.90
22321;DHT22;11328;53.928;18.522;2023-02-26T17:36:00;0.90;99.90
22321;DHT22;11328;53.928;18.522;2023-02-26T17:38:29;0.90;99.90
22321;DHT22;11328;53.928;18.522;2023-02-26T17:40:58;0.90;99.90
22321;DHT22;11328;53.928;18.522;2023-02-26T17:43:26;0.90;99.90
22321;DHT22;11328;53.928;18.522;2023-02-26T17:45:54;0.90;99.90
22321;DHT22;11328;53.928;18.522;2023-02-26T17:48:22;0.80;99.90
22321;DHT22;11328;53.928;18.522;2023-02-26T17:50:55;0.80;99.90
22321;DHT22;11328;53.928;18.522;2023-02-26T17:53:25;0.90;99.90
22321;DHT22;11328;53.928;18.522;2023-02-26T17:55:53;0.90;99.90
22321;DHT22;11328;53.928;18.522;2023-02-26T17:58:28;0.90;99.90
22321;DHT22;11328;53.928;18.522;2023-02-26T18:01:00;0.90;99.90
22321;DHT22;11328;53.928;18.522;2023-02-26T18:03:31;1.00;99.90
22321;DHT22;11328;53.928;18.522;2023-02-26T18:06:00;1.00;99.90
22321;DHT22;11328;53.928;18.522;2023-02-26T18:08:32;1.10;99.90
22321;DHT22;11328;53.928;18.522;2023-02-26T18:11:01;1.10;99.90
22321;DHT22;11328;53.928;18.522;2023-02-26T18:13:30;1.10;99.90
22321;DHT22;11328;53.928;18.522;2023-02-26T18:15:58;1.10;99.90
22321;DHT22;11328;53.928;18.522;2023-02-26T18:18:29;1.20;99.90
22321;DHT22;11328;53.928;18.522;2023-02-26T18:20:57;1.20;99.90
22321;DHT22;11328;53.928;18.522;2023-02-26T18:23:25;1.10;99.90
22321;DHT22;11328;53.928;18.522;2023-02-26T18:25:53;1.20;99.90
22321;DHT22;11328;53.928;18.522;2023-02-26T18:28:23;1.20;99.90
22321;DHT22;11328;53.928;18.522;2023-02-26T18:30:53;1.20;99.90
22321;DHT22;11328;53.928;18.522;2023-02-26T18:33:22;1.20;99.90
22321;DHT22;11328;53.928;18.522;2023-02-26T18:35:52;1.20;99.90
22321;DHT22;11328;53.928;18.522;2023-02-26T18:38:24;1.20;99.90
22321;DHT22;11328;53.928;18.522;2023-02-26T18:40:53;1.20;99.90
22321;DHT22;11328;53.928;18.522;2023-02-26T18:43:21;1.20;99.90
22321;DHT22;11328;53.928;18.522;2023-02-26T18:45:49;1.10;99.90
22321;DHT22;11328;53.928;18.522;2023-02-26T18:48:19;1.10;99.90
22321;DHT22;11328;53.928;18.522;2023-02-26T18:50:47;1.10;99.90
22321;DHT22;11328;53.928;18.522;2023-02-26T18:53:15;1.10;99.90
22321;DHT22;11328;53.928;18.522;2023-02-26T18:55:43;1.10;99.90
22321;DHT22;11328;53.928;18.522;2023-02-26T18:58:11;1.20;99.90
22321;DHT22;11328;53.928;18.522;2023-02-26T19:00:38;1.20;99.90
22321;DHT22;11328;53.928;18.522;2023-02-26T19:03:06;1.10;99.90
22321;DHT22;11328;53.928;18.522;2023-02-26T19:05:35;1.10;99.90
22321;DHT22;11328;53.928;18.522;2023-02-26T19:08:04;1.10;99.90
22321;DHT22;11328;53.928;18.522;2023-02-26T19:10:32;1.10;99.90
22321;DHT22;11328;53.928;18.522;2023-02-26T19:13:00;1.10;99.90
22321;DHT22;11328;53.928;18.522;2023-02-26T19:15:29;1.10;99.90
22321;DHT22;11328;53.928;18.522;2023-02-26T19:17:56;1.10;99.90
22321;DHT22;11328;53.928;18.522;2023-02-26T19:20:24;1.00;99.90
22321;DHT22;11328;53.928;18.522;2023-02-26T19:22:51;1.00;99.90
22321;DHT22;11328;53.928;18.522;2023-02-26T19:25:19;0.90;99.90
22321;DHT22;11328;53.928;18.522;2023-02-26T19:27:51;0.90;99.90
22321;DHT22;11328;53.928;18.522;2023-02-26T19:30:20;0.90;99.90
22321;DHT22;11328;53.928;18.522;2023-02-26T19:32:50;0.90;99.90
22321;DHT22;11328;53.928;18.522;2023-02-26T19:35:19;0.90;99.90
22321;DHT22;11328;53.928;18.522;2023-02-26T19:37:47;0.90;99.90
22321;DHT22;11328;53.928;18.522;2023-02-26T19:40:14;0.80;99.90
22321;DHT22;11328;53.928;18.522;2023-02-26T19:42:45;0.80;99.90
22321;DHT22;11328;53.928;18.522;2023-02-26T19:45:13;0.80;99.90
22321;DHT22;11328;53.928;18.522;2023-02-26T19:47:41;0.80;99.90
22321;DHT22;11328;53.928;18.522;2023-02-26T19:50:09;0.80;99.90
22321;DHT22;11328;53.928;18.522;2023-02-26T19:52:38;0.90;99.90
22321;DHT22;11328;53.928;18.522;2023-02-26T19:55:07;0.70;99.90
22321;DHT22;11328;53.928;18.522;2023-02-26T19:57:34;0.60;99.90
22321;DHT22;11328;53.928;18.522;2023-02-26T20:00:03;0.60;99.90